Pagina principală
METAR-TAF:

METAR-TAF

Aeroporturi :

Raymond, Mississippi, Statele Unite ale Americii

Latitudine: 32-18-16N, longitudine: 090-24-38W, elevație: 75 m

Observații meteo curente

Raportul a fost făcut în urmă cu 1 oră și 10 de minute, la 20:55 UTC
Vânt calm
Temperatură 34°C
Umiditate 39%
Presiune 1016 hPa
Vizibilitate: 16.1 km
Cer senin

METAR: KJVW 222055Z AUTO 00000KT 10SM CLR 34/18 A3000 RMK AO2

Ora: 17:05 (22:05 UTC)


TAF: lipsă

Observații și prognoze meteo pentru peste 4.000 de aeroporturi (rapoarte METAR și TAF).

Stațiile disponibile sunt reprezentate pe hartă prin puncte galbene și roșii.

Țineți indicatorul mouse-ului pe punctul dorit pentru a vedea denumirea stației.

Apoi, faceți clic pentru a vedea observațiile și prognozele meteorologice.

Pentru a schimba harta: Pentru mărire, faceți clic pe butoanele verzi cu cruce neagră; pentru micșorare, pe butonul verde cu o liniuță; pentru hărți învecinate, pe săgețile verzi.


METAR-TAF: